EDT,Max TemperatureF,Mean TemperatureF,Min TemperatureF,Max Dew PointF,MeanDew PointF,Min DewpointF,Max Humidity, Mean Humidity, Min Humidity, Max Sea Level PressureIn, Mean Sea Level PressureIn, Min Sea Level PressureIn, Max VisibilityMiles, Mean VisibilityMiles, Min VisibilityMiles, Max Wind SpeedMPH, Mean Wind SpeedMPH, Max Gust SpeedMPH,PrecipitationIn, CloudCover, Events, WindDirDegrees
2011-10-1,50,46,42,43,39,37,93,78,66,30.00,29.93,29.87,10,10,5,16,8,21,0.03,6,Rain,302
2011-10-2,53,48,42,43,35,30,87,64,41,30.04,30.01,29.97,10,10,7,16,8,25,0.00,6,Rain,292
2011-10-3,55,50,44,45,37,34,87,63,54,30.19,30.09,30.00,10,10,10,16,9,29,0.00,5,Rain,290
2011-10-4,64,58,51,50,48,43,88,71,56,30.31,30.25,30.19,10,10,7,12,4,,0.00,5,,325
2011-10-5,75,58,42,55,45,28,100,69,19,30.34,30.31,30.26,10,8,2,8,1,,0.00,0,,339
2011-10-6,73,58,44,54,49,45,100,76,46,30.43,30.37,30.33,10,9,3,5,1,,0.00,0,,83
2011-10-7,75,62,48,63,53,48,100,79,47,30.51,30.46,30.41,10,7,2,7,1,,0.00,1,,101
2011-10-8,73,58,44,61,49,43,100,80,36,30.57,30.52,30.46,10,9,4,7,1,,0.00,3,,96
2011-10-9,73,58,44,54,46,41,100,78,31,30.53,30.48,30.40,10,9,2,10,1,,0.00,0,,90
2011-10-10,71,58,46,52,49,46,100,75,43,30.41,30.31,30.22,10,10,3,10,2,,0.00,0,,75
2011-10-11,66,60,55,59,54,48,100,85,52,30.21,30.15,30.07,10,9,5,14,2,18,0.05,7,Rain,83
2011-10-12,69,62,55,63,59,55,100,92,64,30.02,29.92,29.85,10,7,2,10,3,,0.21,8,Rain,61
2011-10-13,71,66,60,66,62,55,100,89,64,29.84,29.71,29.59,10,8,2,17,3,20,0.03,6,Rain,171
2011-10-14,64,60,55,57,47,32,100,70,30,29.74,29.67,29.61,10,10,5,24,10,36,0.01,5,Rain,262
2011-10-15,64,58,51,37,34,27,58,44,24,29.98,29.92,29.86,10,10,10,21,10,28,0.00,1,,264
2011-10-16,75,60,44,41,37,34,76,43,25,30.16,30.08,29.97,10,10,10,18,9,24,0.00,0,,241
2011-10-17,78,68,57,55,49,43,72,54,39,29.98,29.94,29.89,10,10,10,13,7,18,0.00,0,,236
2011-10-18,80,65,50,61,52,45,100,71,30,29.92,29.86,29.76,10,9,3,10,2,16,0.00,0,,173
2011-10-19,60,56,51,61,57,50,100,97,88,29.73,29.52,29.32,10,9,4,14,6,20,0.09,8,Rain,88
2011-10-20,50,46,42,43,39,36,100,79,62,29.89,29.64,29.47,10,10,4,26,14,38,0.00,7,Rain,238
2011-10-21,57,50,44,37,36,34,71,60,41,30.11,30.04,29.94,10,10,10,18,12,31,0.00,4,,276
2011-10-22,60,46,32,41,37,32,100,74,42,30.20,30.15,30.09,10,10,7,5,1,,0.00,0,,85
2011-10-23,66,50,33,41,36,32,100,70,28,30.19,30.14,30.08,10,10,7,5,0,,0.00,0,,193
2011-10-24,69,56,42,46,42,37,100,68,31,30.16,30.12,30.05,10,10,10,9,2,18,0.00,2,Rain,258
2011-10-25,71,58,46,48,41,32,87,59,25,30.31,30.23,30.17,10,10,10,10,4,,0.00,0,,285
2011-10-26,69,56,42,48,45,39,100,69,43,30.16,30.05,29.94,10,10,10,12,3,17,0.00,0,,239
2011-10-27,68,62,55,55,49,45,82,64,55,29.90,29.85,29.79,10,10,10,15,6,21,0.00,3,Rain,242
2011-10-28,46,40,35,43,38,36,100,85,76,30.17,30.11,30.05,10,8,2,10,6,9,0.06,8,Rain,56
2011-10-29,46,40,35,39,34,28,100,82,50,30.09,30.02,29.97,10,8,3,15,6,26,0.04,6,Snow,322
2011-10-30,55,42,30,36,30,25,100,67,31,30.30,30.23,30.12,10,10,7,7,2,,0.00,1,,183
2011-10-31,53,43,33,39,33,30,93,73,44,30.31,30.26,30.18,10,10,10,10,1,,0.00,2,Rain,215